Time;durP1;ratioP1;P1;durP2;ratioP2;P2;SDS_P1;SDS_P2;PMS_P1;PMS_P2;Temp;Humidity;BMP_temperature;BMP_pressure;BME280_temperature;BME280_humidity;BME280_pressure;Samples;Min_cycle;Max_cycle;Signal;HPM_P1;HPM_P2
2022/07/07 00:02:05;;;;;;;10.80;3.50;;;;;;;-146.64;100.00;114127.28;5133408;27;20452;-76
2022/07/07 00:04:30;;;;;;;7.90;3.20;;;;;;;-146.64;100.00;114127.28;5133309;27;20066;-76
2022/07/07 00:06:55;;;;;;;10.13;2.90;;;;;;;-146.64;100.00;114394.19;5134506;27;20027;-74
2022/07/07 00:09:21;;;;;;;10.83;2.90;;;;;;;-146.64;100.00;114127.28;5133547;27;20039;-75
2022/07/07 00:11:46;;;;;;;7.23;2.30;;;;;;;-146.64;100.00;113860.38;5097192;27;20114;-76
2022/07/07 00:14:12;;;;;;;14.10;2.80;;;;;;;-146.64;100.00;114127.28;5116055;28;20479;-76
2022/07/07 00:16:37;;;;;;;6.43;2.23;;;;;;;-146.64;100.00;113593.50;5096103;27;20490;-75
2022/07/07 00:19:04;;;;;;;16.37;2.50;;;;;;;-146.64;100.00;113326.63;5132572;27;20110;-74
2022/07/07 00:21:29;;;;;;;6.53;2.17;;;;;;;-146.64;100.00;112259.38;5135132;28;20106;-75
2022/07/07 00:23:55;;;;;;;7.95;2.20;;;;;;;-146.64;100.00;111192.41;5116487;28;20106;-74
2022/07/07 00:26:20;;;;;;;9.53;2.13;;;;;;;-146.64;100.00;110392.34;5105699;28;20034;-73
2022/07/07 00:28:48;;;;;;;5.18;2.13;;;;;;;-146.64;100.00;110125.69;5099039;28;20031;-75
2022/07/07 00:31:13;;;;;;;8.88;2.40;;;;;;;-146.64;100.00;107726.63;5116071;28;20104;-75
2022/07/07 00:33:39;;;;;;;4.43;2.00;;;;;;;-146.64;100.00;98942.19;5102054;27;20028;-75
2022/07/07 00:36:07;;;;;;;3.47;1.53;;;;;;;-146.64;100.00;94424.25;5109030;28;20079;-75
2022/07/07 00:38:32;;;;;;;6.30;2.00;;;;;;;-146.64;100.00;87524.28;5134790;28;20124;-76
2022/07/07 00:40:57;;;;;;;5.40;1.73;;;;;;;-146.64;100.00;67686.56;5113604;28;20114;-75
2022/07/07 00:43:23;;;;;;;3.10;1.70;;;;;;;-146.64;100.00;63994.41;5114632;28;20465;-75
2022/07/07 00:45:49;;;;;;;5.73;2.07;;;;;;;-146.64;100.00;64258.03;5132576;27;20061;-75
2022/07/07 00:48:15;;;;;;;6.05;1.60;;;;;;;-146.64;100.00;60305.66;5110688;28;20368;-75
2022/07/07 00:50:43;;;;;;;1.75;1.50;;;;;;;-146.64;100.00;47358.44;5096588;28;20562;-75
2022/07/07 00:53:08;;;;;;;2.97;1.38;;;;;;;-146.64;100.00;40565.94;5132331;27;20205;-75
2022/07/07 00:55:34;;;;;;;6.10;1.57;;;;;;;-146.64;100.00;38466.03;5116659;28;20057;-75
2022/07/07 00:57:59;;;;;;;3.60;1.50;;;;;;;-146.64;100.00;38326.88;5114000;28;20027;-75
2022/07/07 01:00:25;;;;;;;4.90;1.43;;;;;;;-146.64;100.00;38195.94;5114567;27;20047;-75
2022/07/07 01:02:50;;;;;;;7.13;1.40;;;;;;;-146.64;100.00;37905.41;5112567;28;20031;-76
2022/07/07 01:05:18;;;;;;;4.87;1.63;;;;;;;-146.64;100.00;37848.13;5102276;28;20034;-76
2022/07/07 01:07:44;;;;;;;6.15;1.60;;;;;;;-146.64;100.00;37516.72;5134186;27;20363;-76
2022/07/07 01:10:09;;;;;;;2.57;1.50;;;;;;;-146.64;100.00;37561.72;5098751;28;20034;-75
2022/07/07 01:12:36;;;;;;;1.83;1.30;;;;;;;-146.64;100.00;37537.19;5114247;28;20049;-75
2022/07/07 01:15:06;;;;;;;5.60;1.60;;;;;;;-146.64;100.00;37434.91;5114872;28;20479;-76
2022/07/07 01:17:32;;;;;;;2.20;1.30;;;;;;;-146.64;100.00;37398.06;5097244;28;20146;-75
2022/07/07 01:19:58;;;;;;;1.90;1.50;;;;;;;-146.64;100.00;37416.50;5124001;27;20169;-76
2022/07/07 01:22:27;;;;;;;3.90;1.42;;;;;;;-146.64;100.00;37471.72;5110607;28;20086;-75
2022/07/07 01:24:53;;;;;;;2.10;1.73;;;;;;;-146.64;100.00;37604.69;5107413;28;20367;-75
2022/07/07 01:27:20;;;;;;;3.67;1.50;;;;;;;-146.64;100.00;38048.63;5096183;28;20031;-77
2022/07/07 01:29:50;;;;;;;2.67;1.40;;;;;;;-146.64;100.00;38642.00;5098704;28;20031;-77
2022/07/07 01:32:16;;;;;;;7.63;1.73;;;;;;;-146.64;100.00;39460.59;5114161;28;20034;-75
2022/07/07 01:34:44;;;;;;;4.70;1.60;;;;;;;-146.64;100.00;40570.03;5114531;28;20023;-77
2022/07/07 01:37:10;;;;;;;4.47;1.85;;;;;;;-146.64;100.00;41585.59;5108301;27;20100;-74
2022/07/07 01:39:36;;;;;;;5.33;1.97;;;;;;;-146.64;100.00;44072.41;5095084;27;20031;-75
2022/07/07 01:42:02;;;;;;;9.32;2.50;;;;;;;-146.64;100.00;50191.56;5095486;27;20799;-76
2022/07/07 01:44:31;;;;;;;2.63;1.70;;;;;;;-146.64;100.00;58989.09;5114675;27;20046;-75
2022/07/07 01:46:56;;;;;;;3.03;1.63;;;;;;;-146.64;100.00;64785.31;5075846;27;20032;-74
2022/07/07 01:49:22;;;;;;;4.00;1.70;;;;;;;-146.64;100.00;70854.00;5106783;28;20501;-75
2022/07/07 01:51:47;;;;;;;5.17;1.90;;;;;;;-146.64;100.00;73759.69;5094447;28;20159;-75
2022/07/07 01:54:13;;;;;;;7.80;1.70;;;;;;;-146.64;100.00;77725.41;5104495;28;20031;-75
2022/07/07 01:56:38;;;;;;;10.20;1.70;;;;;;;-146.64;100.00;78519.03;5115141;28;20534;-75
2022/07/07 01:59:04;;;;;;;5.00;2.67;;;;;;;-146.64;100.00;78254.47;5096899;28;20386;-76
2022/07/07 02:01:29;;;;;;;3.27;2.10;;;;;;;-146.64;100.00;82489.44;5129266;27;20108;-74
2022/07/07 02:03:54;;;;;;;5.67;2.10;;;;;;;-146.64;100.00;85933.66;5131205;27;20056;-75
2022/07/07 02:06:20;;;;;;;2.63;1.40;;;;;;;-146.64;100.00;83548.88;5131588;27;20107;-76
2022/07/07 02:08:45;;;;;;;9.10;2.10;;;;;;;-146.64;100.00;83284.00;5098628;28;20027;-77
2022/07/07 02:11:13;;;;;;;4.37;1.40;;;;;;;-146.64;100.00;83548.88;5128238;27;20109;-77
2022/07/07 02:13:49;;;;;;;2.33;2.03;;;;;;;-146.64;100.00;81959.81;5104369;28;20034;-76
2022/07/07 02:16:16;;;;;;;4.10;1.55;;;;;;;-146.64;100.00;81165.53;5096349;27;20033;-77
2022/07/07 02:18:42;;;;;;;2.25;1.20;;;;;;;-146.64;100.00;80371.41;5110610;28;20494;-76
2022/07/07 02:21:10;;;;;;;5.03;1.73;;;;;;;-146.64;100.00;84343.66;5130146;27;20110;-77
2022/07/07 02:23:37;;;;;;;1.38;1.20;;;;;;;-146.64;100.00;90176.72;5096407;28;20031;-76
2022/07/07 02:26:04;;;;;;;5.63;1.85;;;;;;;-146.64;100.00;90972.78;5132224;27;20665;-76
2022/07/07 02:28:29;;;;;;;1.30;1.15;;;;;;;-146.64;100.00;92565.41;5096555;28;20035;-75
2022/07/07 02:30:55;;;;;;;2.07;1.27;;;;;;;-146.64;100.00;96018.25;5111434;27;20831;-76
2022/07/07 02:33:21;;;;;;;4.07;1.80;;;;;;;-146.64;100.00;98942.19;5097118;28;20027;-77
2022/07/07 02:35:47;;;;;;;4.03;1.27;;;;;;;-146.64;100.00;98676.28;5082077;28;20505;-76
2022/07/07 02:38:12;;;;;;;4.55;1.45;;;;;;;-146.64;100.00;99208.09;5094681;28;20026;-76
2022/07/07 02:40:38;;;;;;;4.90;1.57;;;;;;;-146.64;100.00;102134.31;5114997;28;20118;-76
2022/07/07 02:43:03;;;;;;;7.30;1.60;;;;;;;-146.64;100.00;106660.84;5105518;28;20047;-77
2022/07/07 02:45:28;;;;;;;1.13;1.13;;;;;;;-146.64;100.00;107993.13;5132741;28;20492;-76
2022/07/07 02:47:54;;;;;;;1.87;1.60;;;;;;;-146.64;100.00;109592.44;5111350;28;20066;-76
2022/07/07 02:50:19;;;;;;;5.97;1.93;;;;;;;-146.64;100.00;109592.44;5111126;28;20159;-76
2022/07/07 02:52:45;;;;;;;4.33;1.13;;;;;;;-146.64;100.00;110125.69;5130914;27;20054;-76
2022/07/07 02:55:10;;;;;;;3.17;1.80;;;;;;;-146.64;100.00;109859.06;5112119;28;20106;-76
2022/07/07 02:57:36;;;;;;;2.20;1.73;;;;;;;-146.64;100.00;108259.63;5112375;28;20027;-77
2022/07/07 03:00:06;;;;;;;4.35;1.60;;;;;;;-146.64;100.00;106660.84;5131259;27;20381;-76
2022/07/07 03:02:31;;;;;;;6.60;1.52;;;;;;;-146.64;100.00;103997.56;5128691;27;20038;-75
2022/07/07 03:04:57;;;;;;;3.17;1.70;;;;;;;-146.64;100.00;102932.75;5124677;27;20023;-76
2022/07/07 03:07:22;;;;;;;3.97;1.27;;;;;;;-146.64;100.00;103731.34;5098412;28;20096;-76
2022/07/07 03:09:47;;;;;;;6.40;2.03;;;;;;;-146.64;100.00;103731.34;5085586;27;20027;-78
2022/07/07 03:12:13;;;;;;;4.93;1.80;;;;;;;-146.64;100.00;103198.94;5110336;28;20035;-76
2022/07/07 03:14:38;;;;;;;3.50;1.40;;;;;;;-146.64;100.00;103731.34;5129927;28;20050;-74
2022/07/07 03:17:04;;;;;;;4.67;1.50;;;;;;;-146.64;100.00;103198.94;5110777;27;20039;-75
2022/07/07 03:19:29;;;;;;;8.53;1.60;;;;;;;-146.64;100.00;102932.75;5109022;27;20122;-75
2022/07/07 03:21:54;;;;;;;4.83;1.70;;;;;;;-146.64;100.00;103198.94;5099755;27;20046;-75
2022/07/07 03:24:20;;;;;;;9.10;1.57;;;;;;;-146.64;100.00;102932.75;5111132;28;20390;-75
2022/07/07 03:26:45;;;;;;;6.93;1.70;;;;;;;-146.64;100.00;103198.94;5094312;27;20552;-75
2022/07/07 03:29:10;;;;;;;3.93;1.40;;;;;;;-146.64;100.00;105062.66;5129777;27;20027;-77
2022/07/07 03:31:36;;;;;;;7.70;1.60;;;;;;;-146.64;100.00;106927.25;5090923;28;20035;-77
2022/07/07 03:34:01;;;;;;;5.50;1.83;;;;;;;-146.64;100.00;109859.06;5111732;28;20032;-77
2022/07/07 03:36:26;;;;;;;7.63;1.63;;;;;;;-146.64;100.00;113059.81;5129170;27;20118;-76
2022/07/07 03:38:52;;;;;;;4.70;1.63;;;;;;;-146.64;100.00;114928.06;5095009;28;20027;-76
2022/07/07 03:41:17;;;;;;;7.97;1.40;;;;;;;-146.64;100.00;117331.34;5129388;27;20118;-76
2022/07/07 03:43:43;;;;;;;4.50;1.70;;;;;;;-146.64;100.00;117865.63;5112785;28;20042;-76
2022/07/07 03:46:08;;;;;;;4.40;1.40;;;;;;;-146.64;100.00;118399.94;5112173;27;20103;-75
2022/07/07 03:48:33;;;;;;;5.93;1.70;;;;;;;-146.64;100.00;118399.94;5091257;28;20110;-76
2022/07/07 03:50:59;;;;;;;6.63;1.10;;;;;;;-146.64;100.00;118402.03;5119944;27;20122;-75
2022/07/07 03:53:24;;;;;;;5.13;1.30;;;;;;;-146.64;100.00;118402.03;5111761;28;20019;-76
2022/07/07 03:55:49;;;;;;;9.77;2.30;;;;;;;-146.64;100.00;118402.03;5113514;28;20030;-75
2022/07/07 03:58:15;;;;;;;7.43;1.57;;;;;;;-146.64;100.00;118402.03;5130095;27;20098;-76
2022/07/07 04:00:40;;;;;;;8.10;2.23;;;;;;;-146.64;100.00;118402.03;5131690;28;20030;-76
2022/07/07 04:03:06;;;;;;;5.33;1.70;;;;;;;-146.64;100.00;118402.03;5109291;28;20083;-75
2022/07/07 04:05:31;;;;;;;4.83;1.43;;;;;;;-146.64;100.00;118402.03;5129373;27;20103;-75
2022/07/07 04:07:56;;;;;;;8.93;2.30;;;;;;;-146.64;100.00;118402.03;5130061;27;20046;-76
2022/07/07 04:10:22;;;;;;;9.93;1.40;;;;;;;-146.64;100.00;118402.03;5130796;27;20034;-74
2022/07/07 04:12:47;;;;;;;5.57;1.30;;;;;;;-146.64;100.00;118402.03;5127667;27;20044;-76
2022/07/07 04:15:12;;;;;;;5.17;1.43;;;;;;;-146.64;100.00;118399.94;5109819;27;20735;-75
2022/07/07 04:17:38;;;;;;;5.57;1.37;;;;;;;-146.64;100.00;118402.03;5108336;27;20027;-74
2022/07/07 04:20:04;;;;;;;6.27;1.53;;;;;;;-146.64;100.00;118402.03;5127680;27;20031;-76
2022/07/07 04:22:30;;;;;;;7.07;1.42;;;;;;;-146.64;100.00;118402.03;5089617;28;20055;-76
2022/07/07 04:24:55;;;;;;;7.50;1.60;;;;;;;-146.64;100.00;118402.03;5107997;27;20479;-75
2022/07/07 04:27:20;;;;;;;4.57;1.33;;;;;;;-146.64;100.00;118402.03;5107193;27;20106;-75
2022/07/07 04:29:47;;;;;;;4.23;1.67;;;;;;;-146.64;100.00;118402.03;5109319;28;20398;-76
2022/07/07 04:32:12;;;;;;;7.60;1.73;;;;;;;-146.64;100.00;118399.94;5134047;27;20035;-75
2022/07/07 04:34:37;;;;;;;13.03;1.77;;;;;;;-146.64;100.00;118399.94;5131228;27;20073;-74
2022/07/07 04:37:03;;;;;;;11.10;1.93;;;;;;;-146.64;100.00;118132.78;5113325;28;20019;-76
2022/07/07 04:39:29;;;;;;;8.67;1.73;;;;;;;-146.64;100.00;117598.47;5116251;28;20079;-75
2022/07/07 04:41:54;;;;;;;10.17;2.40;;;;;;;-146.64;100.00;117064.25;5106294;27;20031;-75
2022/07/07 04:44:19;;;;;;;9.13;1.80;;;;;;;-146.64;100.00;116530.09;5129073;27;20043;-75
2022/07/07 04:46:44;;;;;;;10.37;2.73;;;;;;;-146.64;100.00;115996.03;5111458;28;20110;-75
2022/07/07 04:49:10;;;;;;;7.57;1.93;;;;;;;-146.64;100.00;115996.03;5132612;27;20023;-75
2022/07/07 04:51:35;;;;;;;11.73;2.07;;;;;;;-146.64;100.00;115729.00;5114390;28;20062;-74
2022/07/07 04:54:00;;;;;;;4.97;1.47;;;;;;;-146.64;100.00;115195.03;5114487;27;20110;-75
2022/07/07 04:56:26;;;;;;;11.23;2.00;;;;;;;-146.64;100.00;114661.13;5133013;27;20027;-75
2022/07/07 04:58:51;;;;;;;8.30;1.80;;;;;;;-146.64;100.00;115462.00;5117020;28;20023;-76
2022/07/07 05:01:17;;;;;;;7.40;1.93;;;;;;;-146.64;100.00;115462.00;5106839;27;20038;-76
2022/07/07 05:03:42;;;;;;;8.30;1.70;;;;;;;-146.64;100.00;114661.13;5110142;28;20122;-75
2022/07/07 05:06:08;;;;;;;12.90;1.67;;;;;;;-146.64;100.00;111725.84;5110007;27;20034;-76
2022/07/07 05:08:34;;;;;;;7.00;1.63;;;;;;;-146.64;100.00;110125.69;5109571;27;20023;-75
2022/07/07 05:10:59;;;;;;;5.95;1.40;;;;;;;-146.64;100.00;106394.44;5119008;28;20038;-74
2022/07/07 05:13:25;;;;;;;7.90;2.07;;;;;;;-146.64;100.00;100803.97;5132684;27;20462;-76
2022/07/07 05:15:50;;;;;;;6.97;1.40;;;;;;;-146.64;100.00;100537.94;5133330;27;20027;-74
2022/07/07 05:18:15;;;;;;;6.57;1.73;;;;;;;-146.64;100.00;100271.94;5132746;27;20019;-76
2022/07/07 05:20:41;;;;;;;11.37;2.53;;;;;;;-146.64;100.00;96815.47;5113428;28;20445;-75
2022/07/07 05:23:06;;;;;;;9.43;1.50;;;;;;;-146.64;100.00;93361.97;5101011;28;20442;-76
2022/07/07 05:25:31;;;;;;;10.33;1.67;;;;;;;-146.64;100.00;91503.59;5114659;28;20028;-75
2022/07/07 05:27:57;;;;;;;11.40;2.30;;;;;;;-146.64;100.00;90707.41;5132867;27;20047;-75
2022/07/07 05:30:22;;;;;;;10.67;1.93;;;;;;;-146.64;100.00;84608.59;5113466;28;20083;-75
2022/07/07 05:32:47;;;;;;;8.30;2.27;;;;;;;-146.64;100.00;80371.41;5131168;27;20027;-74
2022/07/07 05:35:13;;;;;;;12.03;2.80;;;;;;;-146.64;100.00;78519.03;5129198;27;20086;-74
2022/07/07 05:37:40;;;;;;;10.07;2.17;;;;;;;-146.64;100.00;79577.41;5132506;27;20157;-76
2022/07/07 05:40:07;;;;;;;7.65;2.15;;;;;;;-146.64;100.00;78254.47;5094909;28;20137;-75
2022/07/07 05:42:32;;;;;;;15.10;2.53;;;;;;;-146.64;100.00;80371.41;5114987;28;20509;-75
2022/07/07 05:44:58;;;;;;;13.07;2.30;;;;;;;-146.64;100.00;78254.47;5130644;27;20075;-75
2022/07/07 05:47:23;;;;;;;16.47;2.57;;;;;;;-146.64;100.00;78254.47;5131807;27;20027;-73
2022/07/07 05:49:48;;;;;;;14.83;2.43;;;;;;;-146.64;100.00;80371.41;5131209;27;20444;-74
2022/07/07 05:52:14;;;;;;;15.00;2.33;;;;;;;-146.64;100.00;81430.28;5134125;28;20050;-76
2022/07/07 05:54:39;;;;;;;11.90;2.00;;;;;;;-146.64;100.00;85403.56;5131780;27;20107;-75
2022/07/07 05:57:06;;;;;;;9.67;2.40;;;;;;;-146.64;100.00;92830.91;5130694;27;20485;-75
2022/07/07 05:59:31;;;;;;;11.50;2.20;;;;;;;-146.64;100.00;94424.25;5133677;27;20027;-74
2022/07/07 06:01:56;;;;;;;14.00;2.20;;;;;;;-146.64;100.00;91503.59;5113513;28;20039;-75
2022/07/07 06:04:23;;;;;;;10.20;2.23;;;;;;;-146.64;100.00;81165.53;5113032;28;20085;-76
2022/07/07 06:06:48;;;;;;;11.68;2.10;;;;;;;-146.64;100.00;78783.59;5124632;27;21268;-76
2022/07/07 06:09:14;;;;;;;17.67;2.23;;;;;;;-146.64;100.00;76667.50;5113919;28;20115;-76
2022/07/07 06:11:39;;;;;;;13.50;2.10;;;;;;;-146.64;100.00;68478.19;5125304;27;20148;-76
2022/07/07 06:14:04;;;;;;;20.70;2.43;;;;;;;-146.64;100.00;58725.81;5111894;27;20079;-76
2022/07/07 06:16:39;;;;;;;15.60;2.20;;;;;;;-146.64;100.00;43129.94;5100249;27;20420;-75
2022/07/07 06:19:08;;;;;;;12.55;2.35;;;;;;;-146.64;100.00;37747.91;5129476;27;20056;-76
2022/07/07 06:21:34;;;;;;;14.93;2.47;;;;;;;-146.64;100.00;37672.19;5113197;28;20493;-76
2022/07/07 06:24:00;;;;;;;14.77;2.90;;;;;;;-146.64;100.00;38357.59;5111621;27;20028;-75
2022/07/07 06:26:25;;;;;;;5.63;1.80;;;;;;;-146.64;100.00;42666.97;5131402;27;20473;-76
2022/07/07 06:28:50;;;;;;;10.67;2.27;;;;;;;-146.64;100.00;42867.72;5129299;27;20535;-75
2022/07/07 06:31:15;;;;;;;16.47;2.20;;;;;;;-146.64;100.00;59778.97;5129674;27;20030;-75
2022/07/07 06:33:41;;;;;;;8.83;1.87;;;;;;;-146.64;100.00;51004.34;5106747;28;20413;-75
2022/07/07 06:36:07;;;;;;;3.83;1.60;;;;;;;-146.64;100.00;44572.41;5104060;28;20027;-76
2022/07/07 06:38:32;;;;;;;13.60;2.30;;;;;;;-146.64;100.00;54253.00;5100960;28;20318;-76
2022/07/07 06:40:58;;;;;;;5.40;1.80;;;;;;;-146.64;100.00;73495.47;5100804;28;20027;-76
2022/07/07 06:43:24;;;;;;;8.63;1.60;;;;;;;-146.64;100.00;91769.03;5088486;28;20027;-76
2022/07/07 06:45:49;;;;;;;9.43;2.07;;;;;;;-146.64;100.00;105861.69;5106492;28;20490;-75
2022/07/07 06:48:15;;;;;;;20.97;2.40;;;;;;;-146.64;100.00;107993.13;5105267;28;20027;-75
2022/07/07 06:50:40;;;;;;;9.17;2.10;;;;;;;-146.64;100.00;106394.44;5099864;28;20108;-75
2022/07/07 06:53:05;;;;;;;6.37;1.60;;;;;;;-146.64;100.00;93893.06;5124410;28;20260;-75
2022/07/07 06:55:31;;;;;;;8.53;1.30;;;;;;;-146.64;100.00;58199.34;5103594;28;20064;-74
2022/07/07 06:57:56;;;;;;;7.03;1.80;;;;;;;-146.64;100.00;56357.25;5090304;28;20488;-72
2022/07/07 07:00:22;;;;;;;9.07;2.10;;;;;;;-146.64;100.00;37858.38;5118824;28;20034;-73
2022/07/07 07:02:48;;;;;;;5.47;1.60;;;;;;;-146.64;100.00;37377.63;5090856;28;20082;-73
2022/07/07 07:05:14;;;;;;;9.18;2.10;;;;;;;-146.64;100.00;38687.03;5092031;28;20107;-73
2022/07/07 07:07:40;;;;;;;6.77;1.40;;;;;;;-146.64;100.00;35610.63;5116245;28;20107;-74
2022/07/07 07:10:05;;;;;;;9.73;2.03;;;;;;;-146.64;100.00;35921.44;5110623;28;20699;-75
2022/07/07 07:12:31;;;;;;;6.40;1.80;;;;;;;-146.64;100.00;36512.44;5129986;28;20042;-73
2022/07/07 07:14:56;;;;;;;5.30;1.50;;;;;;;-146.64;100.00;40052.13;5112457;28;20058;-74
2022/07/07 07:17:21;;;;;;;7.27;2.10;;;;;;;-146.64;100.00;65312.66;5113261;28;20106;-76
2022/07/07 07:19:47;;;;;;;3.93;1.40;;;;;;;-146.64;100.00;77725.41;5128944;28;20045;-73
2022/07/07 07:22:12;;;;;;;10.43;1.60;;;;;;;-146.64;100.00;82224.63;5110860;28;20035;-74
2022/07/07 07:24:37;;;;;;;10.37;1.77;;;;;;;-146.64;100.00;87789.44;5112417;28;20027;-75
2022/07/07 07:27:03;;;;;;;6.80;1.80;;;;;;;-146.64;100.00;87259.13;5092936;28;20482;-75
2022/07/07 07:29:28;;;;;;;10.63;1.83;;;;;;;-146.64;100.00;87259.13;5123287;28;20023;-75
2022/07/07 07:31:54;;;;;;;12.93;2.10;;;;;;;-146.64;100.00;83019.13;5111587;28;20084;-75
2022/07/07 07:34:19;;;;;;;11.57;2.13;;;;;;;-146.64;100.00;72174.50;5122247;28;20039;-74
2022/07/07 07:36:45;;;;;;;12.23;1.83;;;;;;;-146.64;100.00;60305.66;5123047;28;20031;-74
2022/07/07 07:39:11;;;;;;;10.83;1.83;;;;;;;-146.64;100.00;35802.84;5112225;28;20034;-75
2022/07/07 07:41:36;;;;;;;7.82;1.63;;;;;;;-146.64;100.00;36256.81;5104214;27;20032;-75
2022/07/07 07:44:02;;;;;;;9.07;1.73;;;;;;;-146.64;100.00;36305.88;5129519;27;20406;-76
2022/07/07 07:46:27;;;;;;;4.97;1.50;;;;;;;-146.64;100.00;36512.44;5105882;27;20027;-75
2022/07/07 07:48:53;;;;;;;8.10;1.40;;;;;;;-146.64;100.00;36236.34;5127355;27;20041;-75
2022/07/07 07:51:18;;;;;;;12.40;1.80;;;;;;;-146.64;100.00;36956.25;5128744;27;20073;-76
2022/07/07 07:53:43;;;;;;;8.83;1.53;;;;;;;-146.64;100.00;36817.16;5110474;28;20035;-76
2022/07/07 07:56:09;;;;;;;10.63;1.63;;;;;;;-146.64;100.00;36506.31;5130645;28;20106;-76
2022/07/07 07:58:34;;;;;;;5.90;1.17;;;;;;;-146.64;100.00;36988.97;5127963;27;20030;-75
2022/07/07 08:00:59;;;;;;;7.83;1.73;;;;;;;-146.64;100.00;36837.63;5107729;27;21664;-75
2022/07/07 08:03:25;;;;;;;7.30;1.17;;;;;;;-146.64;100.00;37025.78;5126261;27;20019;-75
2022/07/07 08:05:50;;;;;;;6.87;1.40;;;;;;;-146.64;100.00;58725.81;5107404;27;20106;-75
2022/07/07 08:08:15;;;;;;;7.53;1.53;;;;;;;-146.64;100.00;74816.84;5132683;27;20062;-76
2022/07/07 08:10:41;;;;;;;5.80;1.50;;;;;;;-146.64;100.00;80636.09;5125471;27;20020;-75
2022/07/07 08:13:06;;;;;;;5.27;1.23;;;;;;;-146.64;100.00;86463.78;5105523;27;20402;-75
2022/07/07 08:15:31;;;;;;;6.10;1.40;;;;;;;-146.64;100.00;77725.41;5111045;28;20031;-76
2022/07/07 08:17:57;;;;;;;4.53;1.60;;;;;;;-146.64;100.00;54778.97;5075861;28;20097;-75
2022/07/07 08:20:22;;;;;;;7.00;1.83;;;;;;;-146.64;100.00;46958.56;5128807;27;20034;-75
2022/07/07 08:22:47;;;;;;;9.57;1.80;;;;;;;-146.64;100.00;57409.78;5129426;27;20523;-76
2022/07/07 08:25:13;;;;;;;6.67;1.87;;;;;;;-146.64;100.00;66631.31;5114308;28;20039;-76
2022/07/07 08:27:38;;;;;;;5.20;1.33;;;;;;;-146.64;100.00;63730.81;5130129;27;20027;-76
2022/07/07 08:30:05;;;;;;;10.00;1.90;;;;;;;-146.64;100.00;63730.81;5092732;28;20029;-75
2022/07/07 08:32:30;;;;;;;5.60;1.23;;;;;;;-146.64;100.00;65840.06;5112249;28;20498;-76
2022/07/07 08:34:56;;;;;;;4.47;1.50;;;;;;;-146.64;100.00;58199.34;5131580;27;20032;-75
2022/07/07 08:37:21;;;;;;;6.70;1.57;;;;;;;-146.64;100.00;60305.66;5109980;28;20102;-76
2022/07/07 08:39:46;;;;;;;7.17;1.73;;;;;;;-146.64;100.00;81430.28;5099520;27;20033;-76
2022/07/07 08:42:12;;;;;;;6.03;1.40;;;;;;;-146.64;100.00;85403.56;5131690;27;20572;-76
2022/07/07 08:44:37;;;;;;;7.53;1.90;;;;;;;-146.64;100.00;85933.66;5095751;28;20526;-75
2022/07/07 08:47:03;;;;;;;7.90;1.63;;;;;;;-146.64;100.00;86463.78;5111420;27;20428;-76
2022/07/07 08:49:29;;;;;;;8.52;1.50;;;;;;;-146.64;100.00;74288.22;5129890;28;20431;-75
2022/07/07 08:51:55;;;;;;;8.80;1.50;;;;;;;-146.64;100.00;66895.09;5124810;27;20359;-76
2022/07/07 08:54:20;;;;;;;7.30;1.80;;;;;;;-146.64;100.00;53201.31;5096917;28;20360;-76
2022/07/07 08:56:46;;;;;;;5.87;1.90;;;;;;;-146.64;100.00;77460.91;5111981;27;20072;-76
2022/07/07 08:59:13;;;;;;;7.47;1.10;;;;;;;-146.64;100.00;85668.59;5110011;27;20023;-75
2022/07/07 09:01:38;;;;;;;1.80;0.85;;;;;;;-146.64;100.00;75345.50;5111128;27;20023;-78
2022/07/07 09:04:04;;;;;;;6.00;0.97;;;;;;;-146.64;100.00;71118.06;5087758;27;20023;-76
2022/07/07 09:06:30;;;;;;;5.90;1.20;;;;;;;-146.64;100.00;55305.00;5110088;27;20031;-76
2022/07/07 09:08:56;;;;;;;4.35;1.40;;;;;;;-146.64;100.00;35653.56;5108968;27;20019;-76
2022/07/07 09:11:30;;;;;;;4.55;1.33;;;;;;;-146.64;100.00;35618.81;5109724;28;20523;-76
2022/07/07 09:14:12;;;;;;;4.55;1.50;;;;;;;-146.64;100.00;36181.13;5123991;27;20035;-76
2022/07/07 09:16:38;;;;;;;8.10;1.23;;;;;;;-146.64;100.00;35978.69;5108343;28;20036;-77
2022/07/07 09:19:09;;;;;;;6.50;1.33;;;;;;;-146.64;100.00;36207.72;5093938;27;20068;-77
2022/07/07 09:21:34;;;;;;;7.88;1.40;;;;;;;-146.64;100.00;41139.22;5104261;27;20046;-76
2022/07/07 09:24:01;;;;;;;7.67;1.23;;;;;;;-146.64;100.00;42019.75;5112560;27;20019;-75
2022/07/07 09:26:38;;;;;;;5.47;1.30;;;;;;;-146.64;100.00;46046.16;5093282;27;20016;-76
2022/07/07 09:29:05;;;;;;;5.65;1.40;;;;;;;-146.64;100.00;40529.09;5111104;27;20062;-76
2022/07/07 09:31:54;;;;;;;15.05;2.00;;;;;;;-146.64;100.00;50624.63;5112371;28;20031;-76
2022/07/07 09:34:24;;;;;;;6.22;1.42;;;;;;;-146.64;100.00;61359.25;5111585;28;20027;-75
2022/07/07 09:39:45;;;;;;;6.53;1.50;;;;;;;-146.64;100.00;45560.31;5115457;28;20497;-77
2022/07/07 09:42:23;;;;;;;6.00;2.07;;;;;;;-146.64;100.00;35853.97;5112592;28;20080;-76
2022/07/07 09:44:51;;;;;;;8.98;1.95;;;;;;;-146.64;100.00;36498.13;5130083;27;20553;-76
2022/07/07 09:47:18;;;;;;;8.25;1.35;;;;;;;-146.64;100.00;38224.59;5109462;27;20444;-76
2022/07/07 09:50:15;;;;;;;5.72;1.55;;;;;;;-146.64;100.00;37999.53;5107882;28;20504;-76
2022/07/07 09:52:42;;;;;;;5.90;1.58;;;;;;;-146.64;100.00;39857.66;5108520;28;20299;-75
2022/07/07 09:55:09;;;;;;;7.50;1.83;;;;;;;-146.64;100.00;51874.78;5108244;27;20494;-75
2022/07/07 09:57:35;;;;;;;6.28;1.77;;;;;;;-146.64;100.00;64785.31;5110442;28;20027;-77
2022/07/07 10:00:00;;;;;;;13.33;2.30;;;;;;;-146.64;100.00;63203.69;5124169;27;20035;-77
2022/07/07 10:02:29;;;;;;;7.37;1.50;;;;;;;-146.64;100.00;56883.47;5110746;28;20041;-76
2022/07/07 10:04:57;;;;;;;12.70;1.80;;;;;;;-146.64;100.00;46372.13;5092784;28;20557;-77
2022/07/07 10:07:25;;;;;;;9.23;2.20;;;;;;;-146.64;100.00;36831.50;5100672;28;20027;-76
2022/07/07 10:09:55;;;;;;;15.73;1.98;;;;;;;-146.64;100.00;36123.88;5128760;27;20035;-76
2022/07/07 10:12:21;;;;;;;8.05;1.75;;;;;;;-146.64;100.00;35735.34;5110151;28;20034;-77
2022/07/07 10:14:49;;;;;;;11.55;1.95;;;;;;;-146.64;100.00;35962.34;5110422;28;20045;-76
2022/07/07 10:17:16;;;;;;;11.48;2.83;;;;;;;-146.64;100.00;37598.56;5127779;27;20027;-77
2022/07/07 10:19:42;;;;;;;13.40;1.95;;;;;;;-146.64;100.00;78519.03;5109374;28;20031;-76
2022/07/07 10:22:08;;;;;;;7.43;2.08;;;;;;;-146.64;100.00;96018.25;5127186;27;20157;-75
2022/07/07 10:24:35;;;;;;;16.00;2.55;;;;;;;-146.64;100.00;100537.94;5108400;28;20031;-76
2022/07/07 10:27:01;;;;;;;;;;;;;;;-146.64;100.00;104530.09;5102521;27;20023;-74
2022/07/07 10:29:48;;;;;;;11.25;2.00;;;;;;;-146.64;100.00;102134.31;5127943;28;20350;-75
2022/07/07 10:32:16;;;;;;;11.73;3.40;;;;;;;-146.64;100.00;99474.03;5109436;28;20066;-75
2022/07/07 10:34:53;;;;;;;3.25;1.20;;;;;;;-146.64;100.00;92034.47;5113042;28;20486;-74
2022/07/07 10:37:19;;;;;;;6.10;1.27;;;;;;;-146.64;100.00;73759.69;5113346;28;20019;-74
2022/07/07 10:39:50;;;;;;;9.88;2.25;;;;;;;-146.64;100.00;73231.22;5112205;28;20148;-76
2022/07/07 10:42:15;;;;;;;6.47;1.90;;;;;;;-146.64;100.00;67686.56;5110631;28;20462;-74
2022/07/07 10:44:42;;;;;;;6.30;1.87;;;;;;;-146.64;100.00;57936.13;5131770;28;20172;-76
2022/07/07 10:47:11;;;;;;;9.27;1.63;;;;;;;-146.64;100.00;76403.06;5130582;28;20172;-75
2022/07/07 10:49:41;;;;;;;10.23;1.42;;;;;;;-146.64;100.00;60832.41;5112033;28;20023;-74
2022/07/07 10:52:14;;;;;;;8.13;1.67;;;;;;;-146.64;100.00;40578.22;5126049;28;20479;-75
2022/07/07 10:54:55;;;;;;;3.53;1.20;;;;;;;-146.64;100.00;36158.63;5110952;28;20023;-76
2022/07/07 10:57:22;;;;;;;6.78;1.40;;;;;;;-146.64;100.00;35471.59;5112151;28;20055;-76
2022/07/07 10:59:58;;;;;;;10.90;1.85;;;;;;;-146.64;100.00;36068.66;5090807;28;20023;-77
2022/07/07 11:02:37;;;;;;;4.47;1.23;;;;;;;-146.64;100.00;36181.13;5120859;28;20087;-76
2022/07/07 11:05:26;;;;;;;7.82;2.17;;;;;;;-146.64;100.00;35978.69;5130386;28;20031;-75